createdAt,value
2017-02-05T00:00:16.640Z,1009.88
2017-02-05T00:00:57.360Z,1009.85
2017-02-05T00:01:38.004Z,1009.83
2017-02-05T00:02:18.683Z,1009.84
2017-02-05T00:02:59.396Z,1009.87
2017-02-05T00:03:40.036Z,1009.91
2017-02-05T00:04:20.790Z,1009.87
2017-02-05T00:05:01.455Z,1009.87
2017-02-05T00:05:42.205Z,1009.85
2017-02-05T00:06:22.843Z,1009.85
2017-02-05T00:07:03.595Z,1009.92
2017-02-05T00:07:44.288Z,1009.88
2017-02-05T00:08:24.929Z,1009.91
2017-02-05T00:09:05.641Z,1009.89
2017-02-05T00:09:46.384Z,1009.9
2017-02-05T00:10:27.024Z,1009.86
2017-02-05T00:11:07.718Z,1009.92
2017-02-05T00:11:48.343Z,1009.87
2017-02-05T00:12:28.973Z,1009.94
2017-02-05T00:13:09.604Z,1009.93
2017-02-05T00:13:50.292Z,1009.84
2017-02-05T00:14:30.948Z,1009.85
2017-02-05T00:15:11.585Z,1009.89
2017-02-05T00:15:52.252Z,1009.96
2017-02-05T00:16:32.899Z,1009.94
2017-02-05T00:17:13.532Z,1009.96
2017-02-05T00:17:54.210Z,1009.96
2017-02-05T00:18:34.906Z,1009.91
2017-02-05T00:19:15.621Z,1009.91
2017-02-05T00:19:56.273Z,1009.98
2017-02-05T00:20:36.981Z,1009.97
2017-02-05T00:21:17.707Z,1009.98
2017-02-05T00:21:58.336Z,1009.99
2017-02-05T00:22:39.020Z,1009.98
2017-02-05T00:23:19.763Z,1009.99
2017-02-05T00:24:00.405Z,1010.02
2017-02-05T00:24:41.032Z,1010
2017-02-05T00:25:21.687Z,1010.02
2017-02-05T00:26:02.336Z,1010.03
2017-02-05T00:26:43.033Z,1009.99
2017-02-05T00:27:23.678Z,1010.03
2017-02-05T00:28:04.345Z,1010.04
2017-02-05T00:28:44.986Z,1010.04
2017-02-05T00:29:25.622Z,1010.05
2017-02-05T00:30:06.317Z,1010.03
2017-02-05T00:30:46.951Z,1010.03
2017-02-05T00:31:27.580Z,1010.06
2017-02-05T00:32:08.235Z,1010.06
2017-02-05T00:32:48.883Z,1010.05
2017-02-05T00:33:29.604Z,1010.16
2017-02-05T00:34:10.287Z,1010.16
2017-02-05T00:34:50.949Z,1010.1
2017-02-05T00:35:31.586Z,1010.13
2017-02-05T00:36:12.230Z,1010.08
2017-02-05T00:36:52.938Z,1010.06
2017-02-05T00:37:33.559Z,1010.06
2017-02-05T00:38:14.239Z,1010.06
2017-02-05T00:38:54.864Z,1010.09
2017-02-05T00:39:35.498Z,1010.03
2017-02-05T00:40:16.232Z,1010.07
2017-02-05T00:40:56.902Z,1010.02
2017-02-05T00:41:37.542Z,1010
2017-02-05T00:42:18.179Z,1009.99
2017-02-05T00:42:58.840Z,1009.94
2017-02-05T00:43:39.486Z,1009.99
2017-02-05T00:44:20.182Z,1010
2017-02-05T00:45:00.857Z,1010.01
2017-02-05T00:45:41.574Z,1009.99
2017-02-05T00:46:22.214Z,1010.03
2017-02-05T00:47:02.941Z,1010.04
2017-02-05T00:47:43.636Z,1010.03
2017-02-05T00:48:24.302Z,1010.07
2017-02-05T00:49:04.978Z,1010.09
2017-02-05T00:49:45.744Z,1010.12
2017-02-05T00:50:26.378Z,1010.1
2017-02-05T00:51:07.017Z,1010.14
2017-02-05T00:51:47.765Z,1010.16
2017-02-05T00:52:28.468Z,1010.14
2017-02-05T00:53:09.136Z,1010.2
2017-02-05T00:53:49.810Z,1010.19
2017-02-05T00:54:30.452Z,1010.17
2017-02-05T00:55:11.139Z,1010.26
2017-02-05T00:55:51.792Z,1010.18
2017-02-05T00:56:32.437Z,1010.25
2017-02-05T00:57:13.093Z,1010.3
2017-02-05T00:57:53.752Z,1010.33
2017-02-05T00:58:34.446Z,1010.3
2017-02-05T00:59:15.207Z,1010.29
2017-02-05T00:59:55.915Z,1010.26
2017-02-05T01:00:36.586Z,1010.17
2017-02-05T01:01:17.244Z,1010.18
2017-02-05T01:01:57.899Z,1010.24
2017-02-05T01:02:38.539Z,1010.16
2017-02-05T01:03:19.223Z,1010.1
2017-02-05T01:03:59.880Z,1010.09
2017-02-05T01:04:40.533Z,1010.08
2017-02-05T01:05:22.078Z,1010.09
2017-02-05T01:06:02.761Z,1010.08
2017-02-05T01:06:43.438Z,1010.13
2017-02-05T01:07:24.092Z,1010.2
2017-02-05T01:08:04.724Z,1010.12
2017-02-05T01:08:45.383Z,1010.14
2017-02-05T01:09:26.100Z,1010.14
2017-02-05T01:10:06.763Z,1010.14
2017-02-05T01:10:47.439Z,1010.1
2017-02-05T01:11:28.049Z,1010.14
2017-02-05T01:12:08.681Z,1010.1
2017-02-05T01:12:49.315Z,1010.05
2017-02-05T01:13:29.944Z,1010.05
2017-02-05T01:14:10.597Z,1010.1
2017-02-05T01:14:51.317Z,1010.02
2017-02-05T01:15:31.903Z,1010.01
2017-02-05T01:16:12.581Z,1009.94
2017-02-05T01:16:53.319Z,1009.93
2017-02-05T01:17:34.003Z,1009.9
2017-02-05T01:18:14.685Z,1009.91
2017-02-05T01:18:55.385Z,1009.9
2017-02-05T01:19:36.021Z,1009.88
2017-02-05T01:20:16.735Z,1009.92
2017-02-05T01:20:57.387Z,1009.93
2017-02-05T01:21:38.065Z,1009.98
2017-02-05T01:22:18.682Z,1009.97
2017-02-05T01:22:59.403Z,1010.01
2017-02-05T01:23:40.118Z,1010
2017-02-05T01:24:20.774Z,1009.99
2017-02-05T01:25:01.397Z,1010.03
2017-02-05T01:25:42.081Z,1010.04
2017-02-05T01:26:22.764Z,1010
2017-02-05T01:27:03.468Z,1010.1
2017-02-05T01:27:44.104Z,1010.1
2017-02-05T01:28:24.836Z,1010.06
2017-02-05T01:29:05.397Z,1010.11
2017-02-05T01:29:46.026Z,1010.11
2017-02-05T01:30:26.716Z,1010.04
2017-02-05T01:31:07.353Z,1010.06
2017-02-05T01:31:48.025Z,1010.06
2017-02-05T01:32:28.671Z,1010.13
2017-02-05T01:33:09.315Z,1010.11
2017-02-05T01:33:49.948Z,1010.15
2017-02-05T01:34:30.642Z,1010.07
2017-02-05T01:35:11.278Z,1010.02
2017-02-05T01:35:51.967Z,1010.01
2017-02-05T01:36:32.697Z,1010.05
2017-02-05T01:37:13.332Z,1010.05
2017-02-05T01:37:54.042Z,1010.06
2017-02-05T01:38:34.693Z,1010.04
2017-02-05T01:39:15.364Z,1010.09
2017-02-05T01:39:55.985Z,1010.03
2017-02-05T01:40:36.677Z,1010
2017-02-05T01:41:17.281Z,1009.96
2017-02-05T01:41:57.910Z,1010.02
2017-02-05T01:42:38.590Z,1010.03
2017-02-05T01:43:19.307Z,1010
2017-02-05T01:43:59.949Z,1009.93
2017-02-05T01:44:40.697Z,1009.99
2017-02-05T01:45:21.385Z,1009.96
2017-02-05T01:46:02.087Z,1009.93
2017-02-05T01:46:42.722Z,1009.97
2017-02-05T01:47:23.467Z,1009.99
2017-02-05T01:48:04.093Z,1009.97
2017-02-05T01:48:44.721Z,1010.01
2017-02-05T01:49:25.492Z,1009.99
2017-02-05T01:50:06.224Z,1009.98
2017-02-05T01:50:46.923Z,1009.94
2017-02-05T01:51:27.570Z,1009.98
2017-02-05T01:52:08.210Z,1010
2017-02-05T01:52:48.844Z,1009.98
2017-02-05T01:53:29.495Z,1010.02
2017-02-05T01:54:10.267Z,1009.98
2017-02-05T01:54:50.909Z,1009.95
2017-02-05T01:55:31.558Z,1009.98
2017-02-05T01:56:12.322Z,1010.03
2017-02-05T01:56:52.955Z,1009.99
2017-02-05T01:57:33.602Z,1010.08
2017-02-05T01:58:14.265Z,1010.06
2017-02-05T01:58:54.973Z,1010.06
2017-02-05T01:59:35.620Z,1010.11
2017-02-05T02:00:16.249Z,1010.11
2017-02-05T02:00:56.999Z,1010.18
2017-02-05T02:01:37.722Z,1010.17
2017-02-05T02:02:18.424Z,1010.24
2017-02-05T02:02:59.030Z,1010.2
2017-02-05T02:03:39.762Z,1010.32
2017-02-05T02:04:20.488Z,1010.32
2017-02-05T02:05:01.134Z,1010.29
2017-02-05T02:05:41.770Z,1010.3
2017-02-05T02:06:22.397Z,1010.41
2017-02-05T02:07:03.050Z,1010.31
2017-02-05T02:07:43.719Z,1010.41
2017-02-05T02:08:24.370Z,1010.42
2017-02-05T02:09:05.006Z,1010.38
2017-02-05T02:09:45.653Z,1010.33
2017-02-05T02:10:26.279Z,1010.41
2017-02-05T02:11:06.908Z,1010.48
2017-02-05T02:11:47.606Z,1010.44
2017-02-05T02:12:28.325Z,1010.45
2017-02-05T02:13:08.982Z,1010.51
2017-02-05T02:13:49.603Z,1010.5
2017-02-05T02:14:30.233Z,1010.52
2017-02-05T02:15:10.872Z,1010.53
2017-02-05T02:15:51.558Z,1010.57
2017-02-05T02:16:32.223Z,1010.57
2017-02-05T02:17:12.904Z,1010.68
2017-02-05T02:17:53.548Z,1010.64
2017-02-05T02:18:34.257Z,1010.67
2017-02-05T02:19:14.885Z,1010.56
2017-02-05T02:19:55.517Z,1010.7
2017-02-05T02:20:36.192Z,1010.8
2017-02-05T02:21:16.877Z,1010.86
2017-02-05T02:21:57.501Z,1010.64
2017-02-05T02:22:38.176Z,1010.89
2017-02-05T02:23:18.842Z,1010.83
2017-02-05T02:23:59.488Z,1010.71
2017-02-05T02:24:40.117Z,1010.61
2017-02-05T02:25:20.759Z,1010.61
2017-02-05T02:26:01.389Z,1010.59
2017-02-05T02:26:42.092Z,1010.61
2017-02-05T02:27:22.786Z,1010.65
2017-02-05T02:28:03.441Z,1010.59
2017-02-05T02:28:44.066Z,1010.69
2017-02-05T02:29:24.768Z,1010.65
2017-02-05T02:30:05.400Z,1010.58
2017-02-05T02:30:46.039Z,1010.62
2017-02-05T02:31:26.770Z,1010.54
2017-02-05T02:32:07.468Z,1010.61
2017-02-05T02:32:48.119Z,1010.56
2017-02-05T02:33:28.737Z,1010.52
2017-02-05T02:34:09.434Z,1010.59
2017-02-05T02:34:50.075Z,1010.57
2017-02-05T02:35:31.759Z,1010.77
2017-02-05T02:36:12.438Z,1010.55
2017-02-05T02:36:53.072Z,1010.56
2017-02-05T02:37:33.704Z,1010.66
2017-02-05T02:38:14.411Z,1010.53
2017-02-05T02:38:55.103Z,1010.59
2017-02-05T02:39:35.728Z,1010.53
2017-02-05T02:40:16.489Z,1010.53
2017-02-05T02:40:57.173Z,1010.55
2017-02-05T02:41:37.820Z,1010.65
2017-02-05T02:42:18.470Z,1010.51
2017-02-05T02:42:59.221Z,1010.44
2017-02-05T02:43:39.899Z,1010.59
2017-02-05T02:44:20.519Z,1010.48
2017-02-05T02:45:01.245Z,1010.38
2017-02-05T02:45:41.973Z,1010.28
2017-02-05T02:46:22.606Z,1010.32
2017-02-05T02:47:03.312Z,1010.13
2017-02-05T02:47:43.941Z,1010.23
2017-02-05T02:48:24.655Z,1010.16
2017-02-05T02:49:05.299Z,1010.24
2017-02-05T02:49:45.939Z,1010.31
2017-02-05T02:50:26.575Z,1010.2
2017-02-05T02:51:07.200Z,1010.15
2017-02-05T02:51:47.857Z,1010.12
2017-02-05T02:52:28.490Z,1010.2
2017-02-05T02:53:09.127Z,1010.21
2017-02-05T02:53:49.792Z,1010.17
2017-02-05T02:54:30.494Z,1010.21
2017-02-05T02:55:11.141Z,1010.22
2017-02-05T02:55:51.777Z,1010.33
2017-02-05T02:56:32.443Z,1010.32
2017-02-05T02:57:13.070Z,1010.3
2017-02-05T02:57:53.774Z,1010.3
2017-02-05T02:58:34.472Z,1010.36
2017-02-05T02:59:15.110Z,1010.39
2017-02-05T02:59:55.728Z,1010.46
2017-02-05T03:00:36.390Z,1010.46
2017-02-05T03:01:16.993Z,1010.46
2017-02-05T03:01:57.764Z,1010.46
2017-02-05T03:02:38.444Z,1010.44
2017-02-05T03:03:19.079Z,1010.52
2017-02-05T03:03:59.713Z,1010.49
2017-02-05T03:04:40.356Z,1010.53
2017-02-05T03:05:20.993Z,1010.48
2017-02-05T03:06:01.623Z,1010.49
2017-02-05T03:06:42.269Z,1010.47
2017-02-05T03:07:22.894Z,1010.52
2017-02-05T03:08:03.530Z,1010.63
2017-02-05T03:08:44.231Z,1010.71
2017-02-05T03:09:24.864Z,1010.79
2017-02-05T03:10:05.502Z,1010.74
2017-02-05T03:10:46.198Z,1010.79
2017-02-05T03:11:26.839Z,1010.76
2017-02-05T03:12:07.467Z,1010.78
2017-02-05T03:12:48.142Z,1010.79
2017-02-05T03:13:28.891Z,1010.72
2017-02-05T03:14:09.530Z,1010.77
2017-02-05T03:14:50.187Z,1010.75
2017-02-05T03:15:30.905Z,1010.81
2017-02-05T03:16:11.553Z,1010.81
2017-02-05T03:16:52.192Z,1010.81
2017-02-05T03:17:32.908Z,1010.77
2017-02-05T03:18:13.534Z,1010.76
2017-02-05T03:18:54.167Z,1010.83
2017-02-05T03:19:34.901Z,1010.77
2017-02-05T03:20:15.625Z,1010.8
2017-02-05T03:20:56.358Z,1010.81
2017-02-05T03:21:36.946Z,1010.82
2017-02-05T03:22:17.603Z,1010.92
2017-02-05T03:22:58.252Z,1010.9
2017-02-05T03:23:38.903Z,1010.89
2017-02-05T03:24:19.589Z,1011
2017-02-05T03:25:00.211Z,1010.99
2017-02-05T03:25:40.883Z,1011.02
2017-02-05T03:26:21.541Z,1011.13
2017-02-05T03:27:02.168Z,1011.1
2017-02-05T03:27:42.806Z,1011.09
2017-02-05T03:28:23.507Z,1011.18
2017-02-05T03:29:04.264Z,1011.14
2017-02-05T03:29:44.971Z,1011.12
2017-02-05T03:30:25.640Z,1011.12
2017-02-05T03:31:06.292Z,1011.08
2017-02-05T03:31:46.933Z,1011.1
2017-02-05T03:32:27.571Z,1011.03
2017-02-05T03:33:08.236Z,1011.01
2017-02-05T03:33:48.862Z,1011.03
2017-02-05T03:34:29.500Z,1011.01
2017-02-05T03:35:10.131Z,1011.05
2017-02-05T03:35:50.789Z,1011.05
2017-02-05T03:36:31.420Z,1011.07
2017-02-05T03:37:12.054Z,1011.06
2017-02-05T03:37:52.727Z,1011.12
2017-02-05T03:38:33.368Z,1011.02
2017-02-05T03:39:14.049Z,1011.09
2017-02-05T03:39:54.736Z,1011.06
2017-02-05T03:40:35.376Z,1011.06
2017-02-05T03:41:16.064Z,1011.1
2017-02-05T03:41:56.722Z,1011.06
2017-02-05T03:42:37.360Z,1011.01
2017-02-05T03:43:18.005Z,1011.04
2017-02-05T03:43:58.674Z,1011.05
2017-02-05T03:44:39.351Z,1011.02
2017-02-05T03:45:19.982Z,1011.19
2017-02-05T03:46:00.682Z,1011.15
2017-02-05T03:46:41.330Z,1011.18
2017-02-05T03:47:22.018Z,1011.24
2017-02-05T03:48:02.724Z,1011.1
2017-02-05T03:48:43.383Z,1011.14
2017-02-05T03:49:24.013Z,1011.19
2017-02-05T03:50:04.646Z,1011.14
2017-02-05T03:50:45.311Z,1011.15
2017-02-05T03:51:25.952Z,1011.13
2017-02-05T03:52:06.696Z,1011.14
2017-02-05T03:52:47.341Z,1011.09
2017-02-05T03:53:28.023Z,1011.19
2017-02-05T03:54:08.668Z,1010.95
2017-02-05T03:54:49.311Z,1011.08
2017-02-05T03:55:30.701Z,1011.17
2017-02-05T03:56:11.331Z,1011.11
2017-02-05T03:56:52.011Z,1011.1
2017-02-05T03:57:32.645Z,1011.22
2017-02-05T03:58:13.281Z,1010.94
2017-02-05T03:58:53.901Z,1011.14
2017-02-05T03:59:34.533Z,1011
2017-02-05T04:00:15.181Z,1010.97
2017-02-05T04:00:55.822Z,1011.26
2017-02-05T04:01:36.450Z,1011.4
2017-02-05T04:02:17.122Z,1011.36
2017-02-05T04:02:57.791Z,1011.18
2017-02-05T04:03:38.379Z,1011.35
2017-02-05T04:04:19.065Z,1011.14
2017-02-05T04:04:59.693Z,1011.23
2017-02-05T04:05:40.348Z,1011.24
2017-02-05T04:06:21.040Z,1011.13
2017-02-05T04:07:01.725Z,1011.1
2017-02-05T04:07:42.368Z,1011.2
2017-02-05T04:08:23.056Z,1011.16
2017-02-05T04:09:03.712Z,1011.12
2017-02-05T04:09:44.348Z,1011.15
2017-02-05T04:10:25.015Z,1011.33
2017-02-05T04:11:05.744Z,1011.2
2017-02-05T04:11:46.430Z,1011.15
2017-02-05T04:12:27.087Z,1011.26
2017-02-05T04:13:07.733Z,1011.16
2017-02-05T04:13:48.497Z,1011.27
2017-02-05T04:14:29.161Z,1011.21
2017-02-05T04:15:09.847Z,1011.28
2017-02-05T04:15:50.586Z,1011.4
2017-02-05T04:16:31.235Z,1011.27
2017-02-05T04:17:11.861Z,1011.23
2017-02-05T04:17:52.487Z,1011.26
2017-02-05T04:18:33.133Z,1011.29
2017-02-05T04:19:13.796Z,1011.29
2017-02-05T04:19:54.428Z,1011.42
2017-02-05T04:20:35.069Z,1011.38
2017-02-05T04:21:15.691Z,1011.53
2017-02-05T04:21:56.360Z,1011.42
2017-02-05T04:22:37.108Z,1011.46
2017-02-05T04:23:17.736Z,1011.32
2017-02-05T04:23:58.388Z,1011.39
2017-02-05T04:24:39.092Z,1011.48
2017-02-05T04:25:19.722Z,1011.48
2017-02-05T04:26:00.376Z,1011.44
2017-02-05T04:26:41.101Z,1011.47
2017-02-05T04:27:21.736Z,1011.49
2017-02-05T04:28:02.374Z,1011.42
2017-02-05T04:28:43.003Z,1011.51
2017-02-05T04:29:23.690Z,1011.47
2017-02-05T04:30:04.320Z,1011.42
2017-02-05T04:30:45.054Z,1011.48
2017-02-05T04:31:25.691Z,1011.48
2017-02-05T04:32:06.325Z,1011.58
2017-02-05T04:32:46.976Z,1011.6
2017-02-05T04:33:27.596Z,1011.64
2017-02-05T04:34:08.228Z,1011.67
2017-02-05T04:34:48.908Z,1011.67
2017-02-05T04:35:29.581Z,1011.71
2017-02-05T04:36:10.225Z,1011.78
2017-02-05T04:36:50.900Z,1011.83
2017-02-05T04:37:31.571Z,1011.87
2017-02-05T04:38:12.203Z,1011.78
2017-02-05T04:38:53.779Z,1011.78
2017-02-05T04:39:34.435Z,1011.84
2017-02-05T04:40:15.069Z,1011.85
2017-02-05T04:40:55.713Z,1011.88
2017-02-05T04:41:36.357Z,1011.9
2017-02-05T04:42:16.986Z,1011.94
2017-02-05T04:42:57.699Z,1012.01
2017-02-05T04:43:38.420Z,1012.04
2017-02-05T04:44:19.110Z,1012.08
2017-02-05T04:44:59.737Z,1012.29
2017-02-05T04:45:40.391Z,1012.18
2017-02-05T04:46:21.053Z,1012.24
2017-02-05T04:47:01.679Z,1012.21
2017-02-05T04:47:42.305Z,1012.14
2017-02-05T04:48:22.983Z,1012.13
2017-02-05T04:49:03.603Z,1012.33
2017-02-05T04:49:44.232Z,1012.22
2017-02-05T04:50:24.885Z,1012.15
2017-02-05T04:51:05.512Z,1012.12
2017-02-05T04:51:46.163Z,1012.03
2017-02-05T04:52:26.801Z,1012
2017-02-05T04:53:07.427Z,1011.96
2017-02-05T04:53:48.153Z,1012.1
2017-02-05T04:54:28.839Z,1012.21
2017-02-05T04:55:09.463Z,1012.1
2017-02-05T04:55:50.086Z,1012.16
2017-02-05T04:56:31.374Z,1012.07
2017-02-05T04:57:12.017Z,1011.99
2017-02-05T04:57:52.642Z,1012.12
2017-02-05T04:58:33.276Z,1012.05
2017-02-05T04:59:13.918Z,1012.03
2017-02-05T04:59:54.578Z,1012.04
2017-02-05T05:00:35.245Z,1012.05
2017-02-05T05:01:15.982Z,1012.14
2017-02-05T05:01:56.615Z,1012.21
2017-02-05T05:02:37.315Z,1012.01
2017-02-05T05:03:17.969Z,1012.15
2017-02-05T05:03:58.614Z,1012.15
2017-02-05T05:04:39.299Z,1012.15
2017-02-05T05:05:19.948Z,1012.16
2017-02-05T05:06:00.642Z,1012.22
2017-02-05T05:06:41.367Z,1012.07
2017-02-05T05:07:21.997Z,1012.09
2017-02-05T05:08:02.661Z,1012.11
2017-02-05T05:08:43.359Z,1012.21
2017-02-05T05:09:24.100Z,1012.17
2017-02-05T05:10:04.724Z,1012.36
2017-02-05T05:10:45.399Z,1012.22
2017-02-05T05:11:26.098Z,1012.26
2017-02-05T05:12:06.725Z,1012.2
2017-02-05T05:12:47.437Z,1012.34
2017-02-05T05:13:28.079Z,1012.31
2017-02-05T05:14:08.724Z,1012.46
2017-02-05T05:14:49.396Z,1012.35
2017-02-05T05:15:30.095Z,1012.32
2017-02-05T05:16:10.768Z,1012.34
2017-02-05T05:16:51.410Z,1012.37
2017-02-05T05:17:32.052Z,1012.33
2017-02-05T05:18:12.771Z,1012.31
2017-02-05T05:18:53.438Z,1012.35
2017-02-05T05:19:34.670Z,1012.56
2017-02-05T05:20:15.323Z,1012.44
2017-02-05T05:20:56.089Z,1012.51
2017-02-05T05:21:36.774Z,1012.46
2017-02-05T05:22:17.405Z,1012.47
2017-02-05T05:22:58.163Z,1012.56
2017-02-05T05:23:38.810Z,1012.48
2017-02-05T05:24:19.432Z,1012.53
2017-02-05T05:25:00.129Z,1012.57
2017-02-05T05:25:40.752Z,1012.48
2017-02-05T05:26:21.432Z,1012.45
2017-02-05T05:27:02.129Z,1012.63
2017-02-05T05:27:42.816Z,1012.52
2017-02-05T05:28:23.515Z,1012.51
2017-02-05T05:29:04.140Z,1012.51
2017-02-05T05:29:44.854Z,1012.5
2017-02-05T05:30:25.540Z,1012.44
2017-02-05T05:31:06.179Z,1012.39
2017-02-05T05:31:46.806Z,1012.47
2017-02-05T05:32:27.443Z,1012.43
2017-02-05T05:33:08.185Z,1012.48
2017-02-05T05:33:48.828Z,1012.48
2017-02-05T05:34:29.543Z,1012.45
2017-02-05T05:35:10.171Z,1012.39
2017-02-05T05:35:50.801Z,1012.39
2017-02-05T05:36:31.448Z,1012.4
2017-02-05T05:37:12.108Z,1012.52
2017-02-05T05:37:52.736Z,1012.41
2017-02-05T05:38:33.389Z,1012.38
2017-02-05T05:39:14.095Z,1012.45
2017-02-05T05:39:54.714Z,1012.45
2017-02-05T05:40:35.424Z,1012.44
2017-02-05T05:41:16.078Z,1012.56
2017-02-05T05:41:56.787Z,1012.63
2017-02-05T05:42:37.449Z,1012.76
2017-02-05T05:43:18.181Z,1012.67
2017-02-05T05:43:58.849Z,1012.79
2017-02-05T05:44:39.480Z,1012.71
2017-02-05T05:45:20.258Z,1012.87
2017-02-05T05:46:00.927Z,1012.8
2017-02-05T05:46:41.594Z,1012.93
2017-02-05T05:47:22.236Z,1012.95
2017-02-05T05:48:02.860Z,1013.03
2017-02-05T05:48:43.548Z,1012.85
2017-02-05T05:49:24.196Z,1012.73
2017-02-05T05:50:04.897Z,1012.75
2017-02-05T05:50:45.582Z,1012.89
2017-02-05T05:51:26.208Z,1012.9
2017-02-05T05:52:06.933Z,1012.94
2017-02-05T05:52:47.591Z,1012.97
2017-02-05T05:53:28.272Z,1013.01
2017-02-05T05:54:08.962Z,1012.97
2017-02-05T05:54:49.592Z,1013.01
2017-02-05T05:55:30.224Z,1013.07
2017-02-05T05:56:10.866Z,1013.18
2017-02-05T05:56:51.530Z,1013.22
2017-02-05T05:57:32.218Z,1013.12
2017-02-05T05:58:12.861Z,1013.1
2017-02-05T05:58:53.503Z,1013.29
2017-02-05T05:59:34.141Z,1013.48
2017-02-05T06:00:14.771Z,1013.27
2017-02-05T06:00:55.492Z,1013.25
2017-02-05T06:01:36.152Z,1013.3
2017-02-05T06:02:16.811Z,1013.25
2017-02-05T06:02:57.512Z,1013.23
2017-02-05T06:03:38.219Z,1013.33
2017-02-05T06:04:18.848Z,1013.22
2017-02-05T06:04:59.494Z,1013.3
2017-02-05T06:05:40.149Z,1013.43
2017-02-05T06:06:21.861Z,1013.35
2017-02-05T06:07:02.496Z,1013.42
2017-02-05T06:07:43.131Z,1013.4
2017-02-05T06:08:23.761Z,1013.47
2017-02-05T06:09:04.412Z,1013.54
2017-02-05T06:09:45.041Z,1013.5
2017-02-05T06:10:25.684Z,1013.49
2017-02-05T06:11:06.299Z,1013.48
2017-02-05T06:11:46.998Z,1013.44
2017-02-05T06:12:27.648Z,1013.47
2017-02-05T06:13:08.266Z,1013.59
2017-02-05T06:13:48.943Z,1013.49
2017-02-05T06:14:29.682Z,1013.42
2017-02-05T06:15:10.310Z,1013.48
2017-02-05T06:15:50.967Z,1013.39
2017-02-05T06:16:31.722Z,1013.46
2017-02-05T06:17:12.367Z,1013.57
2017-02-05T06:17:53.032Z,1013.6
2017-02-05T06:18:33.752Z,1013.49
2017-02-05T06:19:14.376Z,1013.63
2017-02-05T06:19:55.001Z,1013.57
2017-02-05T06:20:35.675Z,1013.48
2017-02-05T06:21:16.403Z,1013.57
2017-02-05T06:21:57.059Z,1013.49
2017-02-05T06:22:37.702Z,1013.6
2017-02-05T06:23:18.351Z,1013.51
2017-02-05T06:23:59.089Z,1013.57
2017-02-05T06:24:39.651Z,1013.6
2017-02-05T06:25:20.292Z,1013.64
2017-02-05T06:26:00.927Z,1013.65
2017-02-05T06:26:41.579Z,1013.69
2017-02-05T06:27:22.226Z,1013.67
2017-02-05T06:28:02.965Z,1013.81
2017-02-05T06:28:43.476Z,1013.79
2017-02-05T06:29:24.101Z,1013.94
2017-02-05T06:30:04.849Z,1013.78
2017-02-05T06:30:45.463Z,1013.88
2017-02-05T06:31:26.109Z,1013.85
2017-02-05T06:32:06.743Z,1013.84
2017-02-05T06:32:47.371Z,1013.85
2017-02-05T06:33:28.065Z,1013.89
2017-02-05T06:34:08.719Z,1013.95
2017-02-05T06:34:49.353Z,1013.91
2017-02-05T06:35:30.068Z,1013.88
2017-02-05T06:36:10.741Z,1013.96
2017-02-05T06:36:51.405Z,1013.94
2017-02-05T06:37:32.139Z,1014
2017-02-05T06:38:12.879Z,1013.93
2017-02-05T06:38:53.523Z,1014.02
2017-02-05T06:39:34.167Z,1013.96
2017-02-05T06:40:14.865Z,1013.9
2017-02-05T06:40:55.501Z,1013.96
2017-02-05T06:41:36.138Z,1013.89
2017-02-05T06:42:18.532Z,1013.93
2017-02-05T06:42:59.176Z,1013.92
2017-02-05T06:43:39.896Z,1013.94
2017-02-05T06:44:20.555Z,1014.04
2017-02-05T06:45:01.268Z,1013.97
2017-02-05T06:45:42.880Z,1013.91
2017-02-05T06:46:23.530Z,1013.84
2017-02-05T06:47:04.194Z,1013.93
2017-02-05T06:47:44.840Z,1013.9
2017-02-05T06:48:25.569Z,1013.86
2017-02-05T06:49:06.258Z,1013.96
2017-02-05T06:49:46.905Z,1013.97
2017-02-05T06:50:27.653Z,1013.99
2017-02-05T06:51:08.288Z,1014.07
2017-02-05T06:51:48.923Z,1014.12
2017-02-05T06:52:29.576Z,1014.02
2017-02-05T06:53:10.203Z,1014.11
2017-02-05T06:53:50.927Z,1014.13
2017-02-05T06:54:31.605Z,1014.14
2017-02-05T06:55:12.394Z,1014.07
2017-02-05T06:55:53.024Z,1014.12
2017-02-05T06:56:33.650Z,1014.09
2017-02-05T06:57:14.369Z,1014.15
2017-02-05T06:57:55.101Z,1014.29
2017-02-05T06:58:36.259Z,1014.28
2017-02-05T06:59:16.907Z,1014.28
2017-02-05T06:59:57.536Z,1014.26
2017-02-05T07:00:38.205Z,1014.38
2017-02-05T07:01:18.995Z,1014.39
2017-02-05T07:01:59.628Z,1014.4
2017-02-05T07:02:40.280Z,1014.46
2017-02-05T07:03:20.937Z,1014.48
2017-02-05T07:04:01.693Z,1014.44
2017-02-05T07:04:42.320Z,1014.5
2017-02-05T07:05:22.978Z,1014.54
2017-02-05T07:06:03.671Z,1014.53
2017-02-05T07:06:44.366Z,1014.61
2017-02-05T07:07:24.987Z,1014.62
2017-02-05T07:08:05.718Z,1014.65
2017-02-05T07:08:46.425Z,1014.68
2017-02-05T07:09:27.049Z,1014.72
2017-02-05T07:10:07.706Z,1014.76
2017-02-05T07:10:48.426Z,1014.87
2017-02-05T07:11:29.058Z,1014.75
2017-02-05T07:12:09.683Z,1014.85
2017-02-05T07:12:50.345Z,1014.85
2017-02-05T07:13:30.990Z,1014.86
2017-02-05T07:14:11.619Z,1014.84
2017-02-05T07:14:52.311Z,1014.76
2017-02-05T07:15:32.976Z,1014.79
2017-02-05T07:16:13.624Z,1014.81
2017-02-05T07:16:54.327Z,1014.88
2017-02-05T07:17:34.963Z,1014.9
2017-02-05T07:18:15.591Z,1014.95
2017-02-05T07:18:56.295Z,1014.92
2017-02-05T07:19:36.942Z,1014.93
2017-02-05T07:20:17.578Z,1014.89
2017-02-05T07:20:58.298Z,1014.96
2017-02-05T07:21:38.925Z,1014.96
2017-02-05T07:22:19.583Z,1015
2017-02-05T07:23:00.274Z,1015.03
2017-02-05T07:23:40.973Z,1015.04
2017-02-05T07:24:21.606Z,1015.05
2017-02-05T07:25:02.238Z,1015.04
2017-02-05T07:25:42.856Z,1015.06
2017-02-05T07:26:23.481Z,1015.07
2017-02-05T07:27:04.191Z,1015.13
2017-02-05T07:27:44.900Z,1015.15
2017-02-05T07:28:25.552Z,1015.19
2017-02-05T07:29:06.193Z,1015.22
2017-02-05T07:29:46.812Z,1015.22
2017-02-05T07:30:27.446Z,1015.26
2017-02-05T07:31:08.079Z,1015.34
2017-02-05T07:31:48.725Z,1015.33
2017-02-05T07:32:29.427Z,1015.29
2017-02-05T07:33:10.088Z,1015.29
2017-02-05T07:33:50.745Z,1015.32
2017-02-05T07:34:31.369Z,1015.33
2017-02-05T07:35:12.005Z,1015.37
2017-02-05T07:35:52.622Z,1015.38
2017-02-05T07:36:33.259Z,1015.42
2017-02-05T07:37:13.883Z,1015.47
2017-02-05T07:37:54.606Z,1015.46
2017-02-05T07:38:35.275Z,1015.49
2017-02-05T07:39:15.912Z,1015.51
2017-02-05T07:39:56.623Z,1015.53
2017-02-05T07:40:37.258Z,1015.58
2017-02-05T07:41:17.904Z,1015.56
2017-02-05T07:41:58.614Z,1015.59
2017-02-05T07:42:39.243Z,1015.63
2017-02-05T07:43:19.894Z,1015.62
2017-02-05T07:44:00.517Z,1015.71
2017-02-05T07:44:41.187Z,1015.71
2017-02-05T07:45:22.561Z,1015.73
2017-02-05T07:46:03.243Z,1015.78
2017-02-05T07:46:43.867Z,1015.75
2017-02-05T07:47:24.496Z,1015.74
2017-02-05T07:48:05.139Z,1015.83
2017-02-05T07:48:45.811Z,1015.84
2017-02-05T07:49:26.454Z,1015.79
2017-02-05T07:50:07.143Z,1015.82
2017-02-05T07:50:47.872Z,1015.85
2017-02-05T07:51:28.507Z,1015.9
2017-02-05T07:52:09.152Z,1015.96
2017-02-05T07:52:49.844Z,1015.87
2017-02-05T07:53:30.501Z,1015.92
2017-02-05T07:54:11.123Z,1015.93
2017-02-05T07:54:51.759Z,1015.9
2017-02-05T07:55:32.387Z,1015.96
2017-02-05T07:56:13.012Z,1016.03
2017-02-05T07:56:53.734Z,1015.99
2017-02-05T07:57:34.390Z,1016.01
2017-02-05T07:58:15.019Z,1016.07
2017-02-05T07:58:55.728Z,1016.09
2017-02-05T07:59:36.359Z,1016.07
2017-02-05T08:00:17.003Z,1016.04
2017-02-05T08:00:57.661Z,1016.05
2017-02-05T08:01:38.284Z,1016.13
2017-02-05T08:02:18.916Z,1016.14
2017-02-05T08:02:59.591Z,1016.02
2017-02-05T08:03:40.221Z,1016.04
2017-02-05T08:04:20.868Z,1016.07
2017-02-05T08:05:02.248Z,1016.11
2017-02-05T08:05:42.899Z,1016.08
2017-02-05T08:06:23.614Z,1016.1
2017-02-05T08:07:04.328Z,1016.08
2017-02-05T08:07:44.948Z,1016.08
2017-02-05T08:08:25.589Z,1016.14
2017-02-05T08:09:06.248Z,1016.17
2017-02-05T08:09:47.031Z,1016.25
2017-02-05T08:10:27.657Z,1016.33
2017-02-05T08:11:08.351Z,1016.26
2017-02-05T08:11:49.009Z,1016.31
2017-02-05T08:12:29.641Z,1016.33
2017-02-05T08:13:10.289Z,1016.41
2017-02-05T08:13:50.995Z,1016.42